sensor_id;sensor_type;location;lat;lon;timestamp;P1;durP1;ratioP1;P2;durP2;ratioP2
21356;SDS011;10836;53.068;18.234;2023-03-14T00:00:13;10.63;;;4.30;;
21356;SDS011;10836;53.068;18.234;2023-03-14T00:03:01;12.80;;;4.30;;
21356;SDS011;10836;53.068;18.234;2023-03-14T00:05:28;10.43;;;4.60;;
21356;SDS011;10836;53.068;18.234;2023-03-14T00:07:55;10.97;;;4.90;;
21356;SDS011;10836;53.068;18.234;2023-03-14T00:10:22;9.97;;;4.40;;
21356;SDS011;10836;53.068;18.234;2023-03-14T00:12:49;12.33;;;4.97;;
21356;SDS011;10836;53.068;18.234;2023-03-14T00:15:15;12.07;;;4.67;;
21356;SDS011;10836;53.068;18.234;2023-03-14T00:17:42;11.73;;;4.60;;
21356;SDS011;10836;53.068;18.234;2023-03-14T00:20:10;13.27;;;5.17;;
21356;SDS011;10836;53.068;18.234;2023-03-14T00:22:38;9.70;;;4.27;;
21356;SDS011;10836;53.068;18.234;2023-03-14T00:25:06;11.07;;;4.43;;
21356;SDS011;10836;53.068;18.234;2023-03-14T00:27:34;12.50;;;4.27;;
21356;SDS011;10836;53.068;18.234;2023-03-14T00:30:01;10.97;;;4.57;;
21356;SDS011;10836;53.068;18.234;2023-03-14T00:32:28;9.90;;;4.70;;
21356;SDS011;10836;53.068;18.234;2023-03-14T00:34:55;10.57;;;4.40;;
21356;SDS011;10836;53.068;18.234;2023-03-14T00:37:22;11.37;;;4.60;;
21356;SDS011;10836;53.068;18.234;2023-03-14T00:39:51;11.53;;;5.13;;
21356;SDS011;10836;53.068;18.234;2023-03-14T00:42:18;12.00;;;4.80;;
21356;SDS011;10836;53.068;18.234;2023-03-14T00:44:45;9.43;;;4.57;;
21356;SDS011;10836;53.068;18.234;2023-03-14T00:47:12;9.13;;;4.23;;
21356;SDS011;10836;53.068;18.234;2023-03-14T00:49:41;7.80;;;3.77;;
21356;SDS011;10836;53.068;18.234;2023-03-14T00:52:10;11.60;;;3.83;;
21356;SDS011;10836;53.068;18.234;2023-03-14T00:54:36;8.87;;;3.57;;
21356;SDS011;10836;53.068;18.234;2023-03-14T00:57:04;11.17;;;4.33;;
21356;SDS011;10836;53.068;18.234;2023-03-14T00:59:31;8.60;;;4.10;;
21356;SDS011;10836;53.068;18.234;2023-03-14T01:01:58;10.60;;;4.17;;
21356;SDS011;10836;53.068;18.234;2023-03-14T01:04:25;9.97;;;4.47;;
21356;SDS011;10836;53.068;18.234;2023-03-14T01:06:54;8.00;;;4.00;;
21356;SDS011;10836;53.068;18.234;2023-03-14T01:09:21;11.53;;;4.40;;
21356;SDS011;10836;53.068;18.234;2023-03-14T01:11:48;12.03;;;4.47;;
21356;SDS011;10836;53.068;18.234;2023-03-14T01:14:16;12.00;;;4.70;;
21356;SDS011;10836;53.068;18.234;2023-03-14T01:16:43;9.37;;;4.33;;
21356;SDS011;10836;53.068;18.234;2023-03-14T01:19:10;11.43;;;4.00;;
21356;SDS011;10836;53.068;18.234;2023-03-14T01:21:37;11.13;;;4.23;;
21356;SDS011;10836;53.068;18.234;2023-03-14T01:24:05;10.13;;;4.53;;
21356;SDS011;10836;53.068;18.234;2023-03-14T01:26:33;10.20;;;4.17;;
21356;SDS011;10836;53.068;18.234;2023-03-14T01:29:03;9.90;;;4.50;;
21356;SDS011;10836;53.068;18.234;2023-03-14T01:31:33;10.43;;;4.67;;
21356;SDS011;10836;53.068;18.234;2023-03-14T01:34:00;11.20;;;5.30;;
21356;SDS011;10836;53.068;18.234;2023-03-14T01:36:27;8.87;;;4.83;;
21356;SDS011;10836;53.068;18.234;2023-03-14T01:38:58;11.53;;;4.40;;
21356;SDS011;10836;53.068;18.234;2023-03-14T01:41:25;8.83;;;4.30;;
21356;SDS011;10836;53.068;18.234;2023-03-14T01:43:55;10.53;;;4.70;;
21356;SDS011;10836;53.068;18.234;2023-03-14T01:46:30;10.20;;;4.60;;
21356;SDS011;10836;53.068;18.234;2023-03-14T01:49:07;8.77;;;4.53;;
21356;SDS011;10836;53.068;18.234;2023-03-14T01:52:13;7.87;;;3.90;;
21356;SDS011;10836;53.068;18.234;2023-03-14T01:54:53;6.80;;;3.70;;
21356;SDS011;10836;53.068;18.234;2023-03-14T01:57:29;9.73;;;4.17;;
21356;SDS011;10836;53.068;18.234;2023-03-14T02:00:08;7.40;;;3.60;;
21356;SDS011;10836;53.068;18.234;2023-03-14T02:02:41;10.53;;;3.43;;
21356;SDS011;10836;53.068;18.234;2023-03-14T02:05:21;7.57;;;3.10;;
21356;SDS011;10836;53.068;18.234;2023-03-14T02:07:56;6.73;;;3.50;;
21356;SDS011;10836;53.068;18.234;2023-03-14T02:10:30;8.10;;;3.03;;
21356;SDS011;10836;53.068;18.234;2023-03-14T02:13:03;6.73;;;3.37;;
21356;SDS011;10836;53.068;18.234;2023-03-14T02:16:03;6.77;;;3.00;;
21356;SDS011;10836;53.068;18.234;2023-03-14T02:18:47;8.73;;;3.37;;
21356;SDS011;10836;53.068;18.234;2023-03-14T02:21:30;6.33;;;2.70;;
21356;SDS011;10836;53.068;18.234;2023-03-14T02:29:33;3.87;;;2.10;;
21356;SDS011;10836;53.068;18.234;2023-03-14T02:32:05;4.40;;;1.70;;
21356;SDS011;10836;53.068;18.234;2023-03-14T02:34:33;3.73;;;2.20;;
21356;SDS011;10836;53.068;18.234;2023-03-14T02:37:01;4.63;;;1.70;;
21356;SDS011;10836;53.068;18.234;2023-03-14T02:39:35;6.30;;;1.80;;
21356;SDS011;10836;53.068;18.234;2023-03-14T02:42:06;2.90;;;1.60;;
21356;SDS011;10836;53.068;18.234;2023-03-14T02:44:33;3.97;;;1.40;;
21356;SDS011;10836;53.068;18.234;2023-03-14T02:47:03;4.13;;;1.50;;
21356;SDS011;10836;53.068;18.234;2023-03-14T02:49:31;3.53;;;1.80;;
21356;SDS011;10836;53.068;18.234;2023-03-14T02:52:00;2.53;;;1.37;;
21356;SDS011;10836;53.068;18.234;2023-03-14T02:54:27;4.10;;;1.40;;
21356;SDS011;10836;53.068;18.234;2023-03-14T02:56:54;2.57;;;1.50;;
21356;SDS011;10836;53.068;18.234;2023-03-14T02:59:21;1.97;;;1.40;;
21356;SDS011;10836;53.068;18.234;2023-03-14T03:01:52;2.63;;;1.30;;
21356;SDS011;10836;53.068;18.234;2023-03-14T03:04:19;2.80;;;1.53;;
21356;SDS011;10836;53.068;18.234;2023-03-14T03:06:46;3.40;;;1.10;;
21356;SDS011;10836;53.068;18.234;2023-03-14T03:09:16;3.80;;;1.40;;
21356;SDS011;10836;53.068;18.234;2023-03-14T03:11:42;1.93;;;1.00;;
21356;SDS011;10836;53.068;18.234;2023-03-14T03:14:15;2.03;;;1.20;;
21356;SDS011;10836;53.068;18.234;2023-03-14T03:16:42;3.17;;;1.40;;
21356;SDS011;10836;53.068;18.234;2023-03-14T03:19:09;2.00;;;1.17;;
21356;SDS011;10836;53.068;18.234;2023-03-14T03:21:36;3.00;;;1.90;;
21356;SDS011;10836;53.068;18.234;2023-03-14T03:24:03;2.97;;;1.27;;
21356;SDS011;10836;53.068;18.234;2023-03-14T03:26:33;2.77;;;1.23;;
21356;SDS011;10836;53.068;18.234;2023-03-14T03:29:03;4.20;;;1.20;;
21356;SDS011;10836;53.068;18.234;2023-03-14T03:31:30;5.10;;;1.20;;
21356;SDS011;10836;53.068;18.234;2023-03-14T03:33:57;1.87;;;1.10;;
21356;SDS011;10836;53.068;18.234;2023-03-14T03:36:24;1.83;;;1.07;;
21356;SDS011;10836;53.068;18.234;2023-03-14T03:38:52;3.87;;;1.43;;
21356;SDS011;10836;53.068;18.234;2023-03-14T03:41:19;6.30;;;1.60;;
21356;SDS011;10836;53.068;18.234;2023-03-14T03:43:49;3.00;;;1.10;;
21356;SDS011;10836;53.068;18.234;2023-03-14T03:46:16;1.60;;;1.13;;
21356;SDS011;10836;53.068;18.234;2023-03-14T03:48:44;2.40;;;1.30;;
21356;SDS011;10836;53.068;18.234;2023-03-14T03:51:12;2.50;;;1.03;;
21356;SDS011;10836;53.068;18.234;2023-03-14T03:53:41;1.90;;;1.03;;
21356;SDS011;10836;53.068;18.234;2023-03-14T03:56:11;5.03;;;1.07;;
21356;SDS011;10836;53.068;18.234;2023-03-14T03:58:39;4.23;;;1.00;;
21356;SDS011;10836;53.068;18.234;2023-03-14T04:01:06;1.40;;;1.00;;
21356;SDS011;10836;53.068;18.234;2023-03-14T04:03:34;5.80;;;1.30;;
21356;SDS011;10836;53.068;18.234;2023-03-14T04:06:03;2.67;;;1.10;;
21356;SDS011;10836;53.068;18.234;2023-03-14T04:08:34;2.13;;;1.30;;
21356;SDS011;10836;53.068;18.234;2023-03-14T04:11:01;1.93;;;1.20;;
21356;SDS011;10836;53.068;18.234;2023-03-14T04:13:47;2.63;;;1.43;;
21356;SDS011;10836;53.068;18.234;2023-03-14T04:16:16;2.87;;;1.43;;
21356;SDS011;10836;53.068;18.234;2023-03-14T04:18:45;2.03;;;1.40;;
21356;SDS011;10836;53.068;18.234;2023-03-14T04:21:12;2.30;;;1.20;;
21356;SDS011;10836;53.068;18.234;2023-03-14T04:23:45;2.83;;;1.30;;
21356;SDS011;10836;53.068;18.234;2023-03-14T04:26:13;2.43;;;1.40;;
21356;SDS011;10836;53.068;18.234;2023-03-14T04:28:41;3.90;;;1.73;;
21356;SDS011;10836;53.068;18.234;2023-03-14T04:31:13;3.90;;;1.40;;
21356;SDS011;10836;53.068;18.234;2023-03-14T04:33:45;2.37;;;1.60;;
21356;SDS011;10836;53.068;18.234;2023-03-14T04:36:16;5.63;;;1.83;;
21356;SDS011;10836;53.068;18.234;2023-03-14T04:38:44;3.13;;;1.87;;
21356;SDS011;10836;53.068;18.234;2023-03-14T04:41:12;8.47;;;1.80;;
21356;SDS011;10836;53.068;18.234;2023-03-14T04:43:39;3.80;;;2.10;;
21356;SDS011;10836;53.068;18.234;2023-03-14T04:46:09;3.77;;;2.33;;
21356;SDS011;10836;53.068;18.234;2023-03-14T04:48:37;5.07;;;2.70;;
21356;SDS011;10836;53.068;18.234;2023-03-14T04:51:05;5.47;;;2.57;;
21356;SDS011;10836;53.068;18.234;2023-03-14T04:53:33;4.50;;;2.53;;
21356;SDS011;10836;53.068;18.234;2023-03-14T04:56:03;4.57;;;2.47;;
21356;SDS011;10836;53.068;18.234;2023-03-14T04:58:36;7.20;;;3.00;;
21356;SDS011;10836;53.068;18.234;2023-03-14T05:01:04;6.27;;;3.03;;
21356;SDS011;10836;53.068;18.234;2023-03-14T05:03:50;6.63;;;3.47;;
21356;SDS011;10836;53.068;18.234;2023-03-14T05:06:17;5.87;;;3.00;;
21356;SDS011;10836;53.068;18.234;2023-03-14T05:09:01;7.13;;;3.20;;
21356;SDS011;10836;53.068;18.234;2023-03-14T05:11:54;5.37;;;3.13;;
21356;SDS011;10836;53.068;18.234;2023-03-14T05:14:40;5.43;;;3.27;;
21356;SDS011;10836;53.068;18.234;2023-03-14T05:17:20;7.43;;;3.50;;
21356;SDS011;10836;53.068;18.234;2023-03-14T05:20:10;8.83;;;3.77;;
21356;SDS011;10836;53.068;18.234;2023-03-14T05:22:57;6.37;;;3.60;;
21356;SDS011;10836;53.068;18.234;2023-03-14T05:25:42;7.83;;;3.80;;
21356;SDS011;10836;53.068;18.234;2023-03-14T05:28:28;8.33;;;3.47;;
21356;SDS011;10836;53.068;18.234;2023-03-14T05:31:09;9.13;;;4.20;;
21356;SDS011;10836;53.068;18.234;2023-03-14T05:33:55;8.30;;;3.80;;
21356;SDS011;10836;53.068;18.234;2023-03-14T05:36:40;7.27;;;3.47;;
21356;SDS011;10836;53.068;18.234;2023-03-14T05:39:18;9.87;;;3.83;;
21356;SDS011;10836;53.068;18.234;2023-03-14T05:41:58;9.33;;;3.80;;
21356;SDS011;10836;53.068;18.234;2023-03-14T05:45:04;8.10;;;4.35;;
21356;SDS011;10836;53.068;18.234;2023-03-14T05:47:49;7.73;;;3.90;;
21356;SDS011;10836;53.068;18.234;2023-03-14T05:50:35;8.83;;;3.73;;
21356;SDS011;10836;53.068;18.234;2023-03-14T05:53:22;11.93;;;4.40;;
21356;SDS011;10836;53.068;18.234;2023-03-14T05:56:08;11.33;;;4.53;;
21356;SDS011;10836;53.068;18.234;2023-03-14T05:58:54;7.60;;;4.30;;
21356;SDS011;10836;53.068;18.234;2023-03-14T06:01:27;7.30;;;4.00;;
21356;SDS011;10836;53.068;18.234;2023-03-14T06:04:08;8.23;;;3.87;;
21356;SDS011;10836;53.068;18.234;2023-03-14T06:06:35;7.80;;;3.70;;
21356;SDS011;10836;53.068;18.234;2023-03-14T06:09:02;5.47;;;3.27;;
21356;SDS011;10836;53.068;18.234;2023-03-14T06:11:32;6.87;;;4.07;;
21356;SDS011;10836;53.068;18.234;2023-03-14T06:13:59;7.30;;;3.53;;
21356;SDS011;10836;53.068;18.234;2023-03-14T06:16:26;9.50;;;4.10;;
21356;SDS011;10836;53.068;18.234;2023-03-14T06:18:53;9.47;;;4.80;;
21356;SDS011;10836;53.068;18.234;2023-03-14T06:21:22;9.57;;;4.40;;
21356;SDS011;10836;53.068;18.234;2023-03-14T06:23:49;11.70;;;4.53;;
21356;SDS011;10836;53.068;18.234;2023-03-14T06:26:17;12.77;;;4.47;;
21356;SDS011;10836;53.068;18.234;2023-03-14T06:28:44;7.97;;;4.07;;
21356;SDS011;10836;53.068;18.234;2023-03-14T06:31:11;9.53;;;3.93;;
21356;SDS011;10836;53.068;18.234;2023-03-14T06:33:48;7.03;;;3.70;;
21356;SDS011;10836;53.068;18.234;2023-03-14T06:36:15;7.67;;;4.10;;
21356;SDS011;10836;53.068;18.234;2023-03-14T06:38:45;7.83;;;4.00;;
21356;SDS011;10836;53.068;18.234;2023-03-14T06:41:12;9.17;;;4.10;;
21356;SDS011;10836;53.068;18.234;2023-03-14T06:43:42;10.53;;;4.20;;
21356;SDS011;10836;53.068;18.234;2023-03-14T06:46:09;8.60;;;4.03;;
21356;SDS011;10836;53.068;18.234;2023-03-14T06:48:38;8.43;;;4.30;;
21356;SDS011;10836;53.068;18.234;2023-03-14T06:51:06;8.30;;;3.97;;
21356;SDS011;10836;53.068;18.234;2023-03-14T06:53:34;11.73;;;4.17;;
21356;SDS011;10836;53.068;18.234;2023-03-14T06:56:01;9.47;;;3.77;;
21356;SDS011;10836;53.068;18.234;2023-03-14T06:58:31;8.73;;;3.70;;
21356;SDS011;10836;53.068;18.234;2023-03-14T07:01:00;12.73;;;4.20;;
21356;SDS011;10836;53.068;18.234;2023-03-14T07:03:33;8.33;;;3.97;;
21356;SDS011;10836;53.068;18.234;2023-03-14T07:05:59;7.87;;;3.60;;
21356;SDS011;10836;53.068;18.234;2023-03-14T07:08:27;7.37;;;3.50;;
21356;SDS011;10836;53.068;18.234;2023-03-14T07:10:55;11.07;;;4.13;;
21356;SDS011;10836;53.068;18.234;2023-03-14T07:13:23;8.10;;;3.73;;
21356;SDS011;10836;53.068;18.234;2023-03-14T07:15:59;8.00;;;4.37;;
21356;SDS011;10836;53.068;18.234;2023-03-14T07:18:27;13.83;;;4.80;;
21356;SDS011;10836;53.068;18.234;2023-03-14T07:20:55;9.60;;;3.90;;
21356;SDS011;10836;53.068;18.234;2023-03-14T07:23:23;13.80;;;4.80;;
21356;SDS011;10836;53.068;18.234;2023-03-14T07:25:52;13.13;;;4.20;;
21356;SDS011;10836;53.068;18.234;2023-03-14T07:28:23;8.67;;;3.80;;
21356;SDS011;10836;53.068;18.234;2023-03-14T07:30:56;9.97;;;4.33;;
21356;SDS011;10836;53.068;18.234;2023-03-14T07:33:28;9.23;;;3.53;;
21356;SDS011;10836;53.068;18.234;2023-03-14T07:35:55;10.63;;;4.13;;
21356;SDS011;10836;53.068;18.234;2023-03-14T07:38:22;8.10;;;4.00;;
21356;SDS011;10836;53.068;18.234;2023-03-14T07:41:07;8.90;;;4.20;;
21356;SDS011;10836;53.068;18.234;2023-03-14T07:43:40;9.20;;;3.80;;
21356;SDS011;10836;53.068;18.234;2023-03-14T07:46:07;8.27;;;4.03;;
21356;SDS011;10836;53.068;18.234;2023-03-14T07:48:34;11.20;;;3.73;;
21356;SDS011;10836;53.068;18.234;2023-03-14T07:51:01;9.80;;;4.37;;
21356;SDS011;10836;53.068;18.234;2023-03-14T07:53:31;7.50;;;3.80;;
21356;SDS011;10836;53.068;18.234;2023-03-14T07:55:59;10.93;;;4.23;;
21356;SDS011;10836;53.068;18.234;2023-03-14T07:58:26;12.67;;;3.60;;
21356;SDS011;10836;53.068;18.234;2023-03-14T08:00:53;9.47;;;3.53;;
21356;SDS011;10836;53.068;18.234;2023-03-14T08:03:20;8.87;;;3.70;;
21356;SDS011;10836;53.068;18.234;2023-03-14T08:05:47;8.67;;;3.53;;
21356;SDS011;10836;53.068;18.234;2023-03-14T08:08:16;8.30;;;3.90;;
21356;SDS011;10836;53.068;18.234;2023-03-14T08:10:44;12.47;;;5.97;;
21356;SDS011;10836;53.068;18.234;2023-03-14T08:13:13;12.73;;;4.63;;
21356;SDS011;10836;53.068;18.234;2023-03-14T08:15:40;6.47;;;2.87;;
21356;SDS011;10836;53.068;18.234;2023-03-14T08:18:07;6.40;;;3.13;;
21356;SDS011;10836;53.068;18.234;2023-03-14T08:20:35;7.23;;;2.93;;
21356;SDS011;10836;53.068;18.234;2023-03-14T08:23:03;7.70;;;3.00;;
21356;SDS011;10836;53.068;18.234;2023-03-14T08:25:30;5.63;;;3.00;;
21356;SDS011;10836;53.068;18.234;2023-03-14T08:27:57;8.97;;;3.43;;
21356;SDS011;10836;53.068;18.234;2023-03-14T08:30:24;6.23;;;3.07;;
21356;SDS011;10836;53.068;18.234;2023-03-14T08:32:52;6.10;;;2.87;;
21356;SDS011;10836;53.068;18.234;2023-03-14T08:35:20;6.20;;;2.80;;
21356;SDS011;10836;53.068;18.234;2023-03-14T08:37:47;5.57;;;2.83;;
21356;SDS011;10836;53.068;18.234;2023-03-14T08:40:14;5.73;;;2.73;;
21356;SDS011;10836;53.068;18.234;2023-03-14T08:42:44;4.90;;;2.30;;
21356;SDS011;10836;53.068;18.234;2023-03-14T08:45:13;4.93;;;2.40;;
21356;SDS011;10836;53.068;18.234;2023-03-14T08:47:43;10.40;;;3.00;;
21356;SDS011;10836;53.068;18.234;2023-03-14T08:50:11;5.67;;;2.80;;
21356;SDS011;10836;53.068;18.234;2023-03-14T08:52:42;7.60;;;2.43;;
21356;SDS011;10836;53.068;18.234;2023-03-14T08:55:09;4.90;;;2.40;;
21356;SDS011;10836;53.068;18.234;2023-03-14T08:57:37;6.10;;;2.10;;
21356;SDS011;10836;53.068;18.234;2023-03-14T09:00:04;8.40;;;2.57;;
21356;SDS011;10836;53.068;18.234;2023-03-14T09:02:37;6.77;;;2.87;;
21356;SDS011;10836;53.068;18.234;2023-03-14T09:05:04;7.33;;;2.77;;
21356;SDS011;10836;53.068;18.234;2023-03-14T09:07:32;5.13;;;2.20;;
21356;SDS011;10836;53.068;18.234;2023-03-14T09:09:59;6.27;;;2.27;;
21356;SDS011;10836;53.068;18.234;2023-03-14T09:12:26;6.73;;;2.83;;
21356;SDS011;10836;53.068;18.234;2023-03-14T09:14:53;5.30;;;2.20;;
21356;SDS011;10836;53.068;18.234;2023-03-14T09:17:20;6.40;;;2.70;;
21356;SDS011;10836;53.068;18.234;2023-03-14T09:19:47;6.47;;;2.53;;
21356;SDS011;10836;53.068;18.234;2023-03-14T09:22:14;5.63;;;2.23;;
21356;SDS011;10836;53.068;18.234;2023-03-14T09:24:41;3.23;;;1.80;;
21356;SDS011;10836;53.068;18.234;2023-03-14T09:27:08;3.27;;;1.90;;
21356;SDS011;10836;53.068;18.234;2023-03-14T09:29:35;2.73;;;1.67;;
21356;SDS011;10836;53.068;18.234;2023-03-14T09:32:02;5.03;;;1.93;;
21356;SDS011;10836;53.068;18.234;2023-03-14T09:34:30;4.77;;;1.97;;
21356;SDS011;10836;53.068;18.234;2023-03-14T09:36:57;5.00;;;1.80;;
21356;SDS011;10836;53.068;18.234;2023-03-14T09:39:24;4.87;;;2.13;;
21356;SDS011;10836;53.068;18.234;2023-03-14T09:41:51;3.47;;;2.00;;
21356;SDS011;10836;53.068;18.234;2023-03-14T09:44:24;5.47;;;2.03;;
21356;SDS011;10836;53.068;18.234;2023-03-14T09:46:56;5.30;;;1.80;;
21356;SDS011;10836;53.068;18.234;2023-03-14T09:49:31;4.20;;;2.20;;
21356;SDS011;10836;53.068;18.234;2023-03-14T09:52:02;5.27;;;2.27;;
21356;SDS011;10836;53.068;18.234;2023-03-14T09:54:39;7.57;;;2.03;;
21356;SDS011;10836;53.068;18.234;2023-03-14T09:57:11;5.60;;;1.83;;
21356;SDS011;10836;53.068;18.234;2023-03-14T09:59:48;2.67;;;1.70;;
21356;SDS011;10836;53.068;18.234;2023-03-14T10:02:21;7.00;;;2.10;;
21356;SDS011;10836;53.068;18.234;2023-03-14T10:04:50;6.32;;;2.30;;
21356;SDS011;10836;53.068;18.234;2023-03-14T10:07:30;5.97;;;1.90;;
21356;SDS011;10836;53.068;18.234;2023-03-14T10:09:58;6.57;;;1.98;;
21356;SDS011;10836;53.068;18.234;2023-03-14T10:12:30;7.82;;;2.53;;
21356;SDS011;10836;53.068;18.234;2023-03-14T10:15:03;4.43;;;1.83;;
21356;SDS011;10836;53.068;18.234;2023-03-14T10:17:39;4.03;;;1.88;;
21356;SDS011;10836;53.068;18.234;2023-03-14T10:20:35;5.68;;;2.40;;
21356;SDS011;10836;53.068;18.234;2023-03-14T10:25:38;5.35;;;1.80;;
21356;SDS011;10836;53.068;18.234;2023-03-14T10:31:06;3.97;;;1.60;;
21356;SDS011;10836;53.068;18.234;2023-03-14T10:33:35;4.97;;;1.80;;
21356;SDS011;10836;53.068;18.234;2023-03-14T10:36:27;4.33;;;2.10;;
21356;SDS011;10836;53.068;18.234;2023-03-14T10:41:54;4.43;;;1.63;;
21356;SDS011;10836;53.068;18.234;2023-03-14T10:44:28;8.07;;;1.63;;
21356;SDS011;10836;53.068;18.234;2023-03-14T10:46:58;5.57;;;1.80;;
21356;SDS011;10836;53.068;18.234;2023-03-14T10:49:31;4.90;;;2.40;;
21356;SDS011;10836;53.068;18.234;2023-03-14T10:52:01;4.37;;;1.60;;
21356;SDS011;10836;53.068;18.234;2023-03-14T10:55:03;3.90;;;1.77;;
21356;SDS011;10836;53.068;18.234;2023-03-14T10:57:39;3.93;;;1.40;;
21356;SDS011;10836;53.068;18.234;2023-03-14T11:08:25;2.95;;;1.30;;
21356;SDS011;10836;53.068;18.234;2023-03-14T11:11:18;6.70;;;1.57;;
21356;SDS011;10836;53.068;18.234;2023-03-14T11:16:34;5.00;;;1.90;;
21356;SDS011;10836;53.068;18.234;2023-03-14T11:21:56;5.60;;;1.70;;
21356;SDS011;10836;53.068;18.234;2023-03-14T11:25:05;7.67;;;2.00;;
21356;SDS011;10836;53.068;18.234;2023-03-14T11:27:48;6.40;;;1.60;;
21356;SDS011;10836;53.068;18.234;2023-03-14T11:30:42;2.83;;;1.67;;
21356;SDS011;10836;53.068;18.234;2023-03-14T11:33:20;6.40;;;1.87;;
21356;SDS011;10836;53.068;18.234;2023-03-14T11:38:42;4.67;;;1.60;;
21356;SDS011;10836;53.068;18.234;2023-03-14T11:41:16;4.40;;;1.70;;
21356;SDS011;10836;53.068;18.234;2023-03-14T11:43:47;3.53;;;1.77;;
21356;SDS011;10836;53.068;18.234;2023-03-14T11:49:24;4.73;;;1.60;;
21356;SDS011;10836;53.068;18.234;2023-03-14T11:52:01;4.63;;;1.67;;
21356;SDS011;10836;53.068;18.234;2023-03-14T11:54:39;6.47;;;2.00;;
21356;SDS011;10836;53.068;18.234;2023-03-14T11:57:17;6.33;;;2.10;;
21356;SDS011;10836;53.068;18.234;2023-03-14T11:59:53;3.83;;;1.80;;
21356;SDS011;10836;53.068;18.234;2023-03-14T12:02:26;5.93;;;2.00;;
21356;SDS011;10836;53.068;18.234;2023-03-14T12:10:55;8.97;;;2.30;;
21356;SDS011;10836;53.068;18.234;2023-03-14T12:13:32;4.87;;;2.00;;
21356;SDS011;10836;53.068;18.234;2023-03-14T12:16:36;9.23;;;2.35;;
21356;SDS011;10836;53.068;18.234;2023-03-14T12:19:48;7.60;;;1.90;;
21356;SDS011;10836;53.068;18.234;2023-03-14T12:22:05;7.23;;;2.13;;
21356;SDS011;10836;53.068;18.234;2023-03-14T12:24:34;8.77;;;2.28;;
21356;SDS011;10836;53.068;18.234;2023-03-14T12:27:04;5.82;;;1.90;;
21356;SDS011;10836;53.068;18.234;2023-03-14T12:29:33;6.65;;;2.10;;
21356;SDS011;10836;53.068;18.234;2023-03-14T12:32:30;4.93;;;2.00;;
21356;SDS011;10836;53.068;18.234;2023-03-14T12:35:01;5.90;;;1.80;;
21356;SDS011;10836;53.068;18.234;2023-03-14T12:37:54;5.00;;;1.93;;
21356;SDS011;10836;53.068;18.234;2023-03-14T12:40:26;8.40;;;2.20;;
21356;SDS011;10836;53.068;18.234;2023-03-14T12:43:03;8.00;;;2.67;;
21356;SDS011;10836;53.068;18.234;2023-03-14T12:45:32;7.25;;;2.17;;
21356;SDS011;10836;53.068;18.234;2023-03-14T12:48:21;5.38;;;1.92;;
21356;SDS011;10836;53.068;18.234;2023-03-14T12:50:56;5.40;;;1.80;;
21356;SDS011;10836;53.068;18.234;2023-03-14T13:02:14;4.87;;;2.00;;
21356;SDS011;10836;53.068;18.234;2023-03-14T13:04:49;7.13;;;1.65;;
21356;SDS011;10836;53.068;18.234;2023-03-14T13:07:29;8.73;;;2.03;;
21356;SDS011;10836;53.068;18.234;2023-03-14T13:10:00;8.40;;;1.70;;
21356;SDS011;10836;53.068;18.234;2023-03-14T13:12:28;7.10;;;2.20;;
21356;SDS011;10836;53.068;18.234;2023-03-14T13:14:59;8.97;;;2.23;;
21356;SDS011;10836;53.068;18.234;2023-03-14T13:17:32;7.10;;;2.40;;
21356;SDS011;10836;53.068;18.234;2023-03-14T13:20:05;8.50;;;2.00;;
21356;SDS011;10836;53.068;18.234;2023-03-14T13:22:39;4.05;;;2.03;;
21356;SDS011;10836;53.068;18.234;2023-03-14T13:25:13;6.75;;;1.95;;
21356;SDS011;10836;53.068;18.234;2023-03-14T13:27:40;6.70;;;1.48;;
21356;SDS011;10836;53.068;18.234;2023-03-14T13:30:15;7.37;;;1.60;;
21356;SDS011;10836;53.068;18.234;2023-03-14T13:32:48;2.27;;;1.30;;
21356;SDS011;10836;53.068;18.234;2023-03-14T13:35:17;6.17;;;1.60;;
21356;SDS011;10836;53.068;18.234;2023-03-14T13:37:54;4.30;;;1.63;;
21356;SDS011;10836;53.068;18.234;2023-03-14T13:40:36;5.70;;;1.93;;
21356;SDS011;10836;53.068;18.234;2023-03-14T13:43:14;6.57;;;2.07;;
21356;SDS011;10836;53.068;18.234;2023-03-14T13:45:47;11.50;;;6.67;;
21356;SDS011;10836;53.068;18.234;2023-03-14T13:48:36;6.60;;;1.90;;
21356;SDS011;10836;53.068;18.234;2023-03-14T13:51:11;5.67;;;2.00;;
21356;SDS011;10836;53.068;18.234;2023-03-14T13:53:44;4.20;;;1.70;;
21356;SDS011;10836;53.068;18.234;2023-03-14T13:56:13;10.07;;;2.17;;
21356;SDS011;10836;53.068;18.234;2023-03-14T13:58:40;7.00;;;1.93;;
21356;SDS011;10836;53.068;18.234;2023-03-14T14:01:27;6.00;;;1.50;;
21356;SDS011;10836;53.068;18.234;2023-03-14T14:03:58;8.67;;;4.43;;
21356;SDS011;10836;53.068;18.234;2023-03-14T14:06:39;4.43;;;1.70;;
21356;SDS011;10836;53.068;18.234;2023-03-14T14:09:19;7.73;;;2.07;;
21356;SDS011;10836;53.068;18.234;2023-03-14T14:11:52;9.13;;;2.67;;
21356;SDS011;10836;53.068;18.234;2023-03-14T14:17:38;3.90;;;1.60;;
21356;SDS011;10836;53.068;18.234;2023-03-14T14:20:10;12.27;;;2.10;;
21356;SDS011;10836;53.068;18.234;2023-03-14T14:22:47;6.67;;;2.20;;
21356;SDS011;10836;53.068;18.234;2023-03-14T14:25:15;7.30;;;1.97;;
21356;SDS011;10836;53.068;18.234;2023-03-14T14:27:44;3.87;;;1.60;;
21356;SDS011;10836;53.068;18.234;2023-03-14T14:32:49;7.83;;;2.03;;
21356;SDS011;10836;53.068;18.234;2023-03-14T14:35:24;7.80;;;1.70;;
21356;SDS011;10836;53.068;18.234;2023-03-14T14:38:02;6.73;;;1.53;;
21356;SDS011;10836;53.068;18.234;2023-03-14T14:40:43;9.73;;;1.97;;
21356;SDS011;10836;53.068;18.234;2023-03-14T14:43:14;8.23;;;2.00;;
21356;SDS011;10836;53.068;18.234;2023-03-14T14:45:44;6.60;;;2.00;;
21356;SDS011;10836;53.068;18.234;2023-03-14T14:48:14;5.83;;;2.03;;
21356;SDS011;10836;53.068;18.234;2023-03-14T14:55:44;7.03;;;2.00;;
21356;SDS011;10836;53.068;18.234;2023-03-14T14:58:12;6.27;;;2.17;;
21356;SDS011;10836;53.068;18.234;2023-03-14T15:00:49;8.15;;;2.15;;
21356;SDS011;10836;53.068;18.234;2023-03-14T15:03:19;7.40;;;1.80;;
21356;SDS011;10836;53.068;18.234;2023-03-14T15:05:46;5.37;;;1.97;;
21356;SDS011;10836;53.068;18.234;2023-03-14T15:08:13;5.73;;;1.83;;
21356;SDS011;10836;53.068;18.234;2023-03-14T15:10:40;6.70;;;2.15;;
21356;SDS011;10836;53.068;18.234;2023-03-14T15:13:08;6.57;;;1.80;;
21356;SDS011;10836;53.068;18.234;2023-03-14T15:15:38;5.45;;;1.70;;
21356;SDS011;10836;53.068;18.234;2023-03-14T15:18:10;7.30;;;1.27;;
21356;SDS011;10836;53.068;18.234;2023-03-14T15:20:41;3.30;;;1.13;;
21356;SDS011;10836;53.068;18.234;2023-03-14T15:23:12;3.67;;;1.10;;
21356;SDS011;10836;53.068;18.234;2023-03-14T15:25:40;5.57;;;1.30;;
21356;SDS011;10836;53.068;18.234;2023-03-14T15:28:22;3.05;;;1.05;;
21356;SDS011;10836;53.068;18.234;2023-03-14T15:30:52;4.90;;;1.45;;
21356;SDS011;10836;53.068;18.234;2023-03-14T15:33:22;5.47;;;1.13;;
21356;SDS011;10836;53.068;18.234;2023-03-14T15:35:49;7.90;;;1.37;;
21356;SDS011;10836;53.068;18.234;2023-03-14T15:38:20;4.17;;;1.00;;
21356;SDS011;10836;53.068;18.234;2023-03-14T15:40:50;4.75;;;1.30;;
21356;SDS011;10836;53.068;18.234;2023-03-14T15:43:18;1.90;;;1.03;;
21356;SDS011;10836;53.068;18.234;2023-03-14T15:45:46;5.90;;;1.40;;
21356;SDS011;10836;53.068;18.234;2023-03-14T15:48:14;3.28;;;1.52;;
21356;SDS011;10836;53.068;18.234;2023-03-14T15:50:45;4.25;;;1.27;;
21356;SDS011;10836;53.068;18.234;2023-03-14T15:53:13;3.53;;;1.60;;
21356;SDS011;10836;53.068;18.234;2023-03-14T15:55:40;3.77;;;1.00;;
21356;SDS011;10836;53.068;18.234;2023-03-14T15:58:09;3.07;;;1.03;;
21356;SDS011;10836;53.068;18.234;2023-03-14T16:00:46;3.87;;;1.63;;